createdAt,value
2023-02-11T15:01:59.129Z,100059.64
2023-02-11T15:04:36.682Z,100074.71
2023-02-11T15:07:10.721Z,100085.42
2023-02-11T15:09:46.318Z,100094.54
2023-02-11T15:12:25.280Z,100106.30
2023-02-11T15:15:00.341Z,100108.42
2023-02-11T15:17:33.004Z,100113.25
2023-02-11T15:20:06.839Z,100118.91
2023-02-11T15:22:39.459Z,100119.50
2023-02-11T15:25:17.413Z,100116.85
2023-02-11T15:27:57.098Z,100126.48
2023-02-11T15:30:34.268Z,100135.45
2023-02-11T15:33:07.576Z,100145.27
2023-02-11T15:35:42.410Z,100151.98
2023-02-11T15:38:14.554Z,100156.05
2023-02-11T15:41:33.799Z,100162.21
2023-02-11T15:44:06.476Z,100171.94
2023-02-11T15:46:39.774Z,100183.86
2023-02-11T15:49:20.904Z,100185.90
2023-02-11T15:51:57.383Z,100201.73
2023-02-11T15:54:34.916Z,100201.67
2023-02-11T15:57:10.314Z,100213.66
2023-02-11T15:59:48.700Z,100222.89
2023-02-11T16:02:35.126Z,100240.45
2023-02-11T16:05:09.231Z,100240.92
2023-02-11T16:07:52.057Z,100248.52
2023-02-11T16:10:35.640Z,100253.49
2023-02-11T16:13:07.688Z,100266.30
2023-02-11T16:16:02.539Z,100277.02
2023-02-11T16:18:49.372Z,100281.97
2023-02-11T16:21:46.041Z,100294.90
2023-02-11T16:24:28.270Z,100302.13
2023-02-11T16:27:40.788Z,100310.20
2023-02-11T16:30:33.818Z,100326.27
2023-02-11T16:33:05.966Z,100336.08
2023-02-11T16:35:38.911Z,100345.55
2023-02-11T16:38:10.509Z,100354.80
2023-02-11T16:40:44.724Z,100360.42
2023-02-11T16:43:22.249Z,100361.86
2023-02-11T16:45:54.903Z,100368.88
2023-02-11T16:48:26.988Z,100373.77
2023-02-11T16:50:59.055Z,100379.20
2023-02-11T16:53:31.115Z,100391.92
2023-02-11T16:56:04.840Z,100400.84
2023-02-11T16:58:36.471Z,100397.71
2023-02-11T17:01:08.782Z,100413.97
2023-02-11T17:03:41.416Z,100420.66
2023-02-11T17:06:13.894Z,100429.52
2023-02-11T17:08:45.640Z,100433.46
2023-02-11T17:11:18.103Z,100444.70
2023-02-11T17:13:49.821Z,100454.55
2023-02-11T17:16:23.546Z,100458.13
2023-02-11T17:18:55.748Z,100460.81
2023-02-11T17:21:29.904Z,100463.09
2023-02-11T17:24:05.099Z,100468.89
2023-02-11T17:26:37.890Z,100482.82
2023-02-11T17:29:14.456Z,100492.77
2023-02-11T17:31:46.133Z,100498.21
2023-02-11T17:34:19.650Z,100503.46
2023-02-11T17:36:53.200Z,100504.01
2023-02-11T17:39:28.921Z,100514.63
2023-02-11T17:42:01.842Z,100528.63
2023-02-11T17:44:33.951Z,100542.07
2023-02-11T17:47:05.609Z,100548.05
2023-02-11T17:49:39.014Z,100556.95
2023-02-11T17:52:11.113Z,100569.20
2023-02-11T17:54:42.736Z,100568.02
2023-02-11T17:57:14.555Z,100571.88
2023-02-11T17:59:47.218Z,100576.24
2023-02-11T18:02:19.671Z,100576.45
2023-02-11T18:04:52.380Z,100585.33
2023-02-11T18:07:24.110Z,100595.61
2023-02-11T18:09:56.589Z,100602.55
2023-02-11T18:12:28.171Z,100614.57
2023-02-11T18:15:00.199Z,100619.27
2023-02-11T18:17:31.826Z,100622.57
2023-02-11T18:20:05.045Z,100627.28
2023-02-11T18:22:39.484Z,100626.59
2023-02-11T18:25:15.295Z,100629.73
2023-02-11T18:27:46.929Z,100635.63
2023-02-11T18:30:19.791Z,100640.84
2023-02-11T18:32:56.176Z,100644.17
2023-02-11T18:35:27.831Z,100657.19
2023-02-11T18:37:59.775Z,100667.25
2023-02-11T18:40:31.492Z,100675.76
2023-02-11T18:43:03.086Z,100676.48
2023-02-11T18:45:36.371Z,100678.20
2023-02-11T18:48:08.003Z,100687.05
2023-02-11T18:50:44.605Z,100691.39
2023-02-11T18:53:16.216Z,100694.87
2023-02-11T18:59:44.487Z,100717.97
2023-02-11T19:02:17.432Z,100731.16
2023-02-11T19:04:50.539Z,100737.40
2023-02-11T19:07:22.092Z,100736.52
2023-02-11T19:09:53.802Z,100744.53
2023-02-11T19:12:26.290Z,100748.88
2023-02-11T19:15:00.760Z,100751.64
2023-02-11T19:17:35.373Z,100759.63
2023-02-11T19:20:07.870Z,100769.35
2023-02-11T19:22:39.528Z,100780.29
2023-02-11T19:25:12.347Z,100786.88
2023-02-11T19:27:44.443Z,100794.01
2023-02-11T19:30:16.142Z,100804.23
2023-02-11T19:32:52.966Z,100804.77
2023-02-11T19:35:25.989Z,100813.08
2023-02-11T19:37:57.573Z,100817.95
2023-02-11T19:40:29.487Z,100812.73
2023-02-11T19:43:01.084Z,100815.83
2023-02-11T19:45:32.786Z,100822.40
2023-02-11T19:48:05.674Z,100824.33
2023-02-11T19:50:37.233Z,100826.41
2023-02-11T19:53:09.034Z,100834.91
2023-02-11T19:55:40.634Z,100841.66
2023-02-11T19:58:12.379Z,100851.52
2023-02-11T20:00:44.273Z,100857.42
2023-02-11T20:03:15.853Z,100861.40
2023-02-11T20:05:47.984Z,100867.27
2023-02-11T20:08:22.535Z,100870.73
2023-02-11T20:17:49.979Z,100897.40
2023-02-11T20:20:22.047Z,100903.98
2023-02-11T20:22:53.720Z,100907.45
2023-02-11T20:25:25.504Z,100910.73
2023-02-11T20:27:57.240Z,100910.22
2023-02-11T20:30:28.896Z,100914.90
2023-02-11T20:33:01.106Z,100924.27
2023-02-11T20:35:32.680Z,100930.52
2023-02-11T20:38:04.297Z,100939.40
2023-02-11T20:40:36.587Z,100947.93
2023-02-11T20:43:11.366Z,100944.14
2023-02-11T20:45:43.101Z,100958.73
2023-02-11T20:48:15.141Z,100961.66
2023-02-11T20:50:48.374Z,100968.62
2023-02-11T20:53:20.212Z,100969.97
2023-02-11T20:55:52.006Z,100979.48
2023-02-11T20:58:25.006Z,100985.52
2023-02-11T21:00:56.660Z,100992.45
2023-02-11T21:03:28.297Z,101000.95
2023-02-11T21:06:00.190Z,100998.36
2023-02-11T21:08:32.134Z,101006.50
2023-02-11T21:11:08.584Z,101011.90
2023-02-11T21:13:41.938Z,101015.17
2023-02-11T21:16:16.324Z,101013.40
2023-02-11T21:18:49.333Z,101018.41
2023-02-11T21:21:21.802Z,101023.95
2023-02-11T21:23:53.894Z,101031.77
2023-02-11T21:26:25.812Z,101031.60
2023-02-11T21:28:57.713Z,101032.29
2023-02-11T21:31:32.299Z,101032.27
2023-02-11T21:34:05.357Z,101034.00
2023-02-11T21:36:37.909Z,101035.91
2023-02-11T21:39:09.937Z,101041.26
2023-02-11T21:41:41.553Z,101047.29
2023-02-11T21:44:13.412Z,101052.30
2023-02-11T21:46:45.142Z,101054.58
2023-02-11T21:49:16.979Z,101063.25
2023-02-11T21:51:48.659Z,101064.95
2023-02-11T21:54:20.920Z,101061.67
2023-02-11T21:56:52.742Z,101057.48
2023-02-11T21:59:24.798Z,101063.84
2023-02-11T22:01:58.863Z,101069.70
2023-02-11T22:04:31.035Z,101073.17
2023-02-11T22:07:03.318Z,101069.17
2023-02-11T22:09:35.610Z,101070.03
2023-02-11T22:12:11.073Z,101077.65
2023-02-11T22:14:42.761Z,101082.46
2023-02-11T22:17:15.552Z,101085.36
2023-02-11T22:19:47.236Z,101084.46
2023-02-11T22:22:19.798Z,101081.80
2023-02-11T22:24:51.837Z,101092.14
2023-02-11T22:27:24.926Z,101093.67
2023-02-11T22:29:56.565Z,101102.80
2023-02-11T22:32:28.494Z,101108.48
2023-02-11T22:35:00.806Z,101114.38
2023-02-11T22:37:33.357Z,101116.41
2023-02-11T22:40:05.966Z,101115.39
2023-02-11T22:42:37.977Z,101120.27
2023-02-11T22:45:09.769Z,101120.63
2023-02-11T22:47:41.536Z,101125.47
2023-02-11T22:50:13.658Z,101126.70
2023-02-11T22:52:45.359Z,101131.77
2023-02-11T22:55:18.012Z,101134.75
2023-02-11T22:57:49.688Z,101134.75
2023-02-11T23:00:26.581Z,101137.03
2023-02-11T23:02:58.883Z,101147.45
2023-02-11T23:05:31.455Z,101146.98
2023-02-11T23:08:03.243Z,101149.31
2023-02-11T23:10:36.770Z,101146.75
2023-02-11T23:13:10.740Z,101153.33
2023-02-11T23:15:45.220Z,101160.43
2023-02-11T23:18:16.891Z,101164.08
2023-02-11T23:20:48.785Z,101160.09
2023-02-11T23:23:20.577Z,101159.39
2023-02-11T23:25:52.352Z,101167.52
2023-02-11T23:28:24.085Z,101170.99
2023-02-11T23:30:55.989Z,101173.40
2023-02-11T23:33:29.450Z,101180.52
2023-02-11T23:38:57.356Z,101185.16
2023-02-11T23:41:29.096Z,101185.66
2023-02-11T23:44:00.720Z,101195.20
2023-02-11T23:46:32.404Z,101208.58
2023-02-11T23:49:04.339Z,101216.92
2023-02-11T23:51:35.919Z,101220.08
2023-02-11T23:54:07.510Z,101228.25
2023-02-11T23:56:39.192Z,101225.72
2023-02-11T23:59:11.800Z,101232.88
